Terminal Aerodrome Forecast
Issued by NWS

Home | Current Version | Previous Version | Graphics & Text | Print | Product List | Glossary On
Versions: 1 2 3 4 5 6 7 8 9 10 11 12 13 14 15 16 17 18 19
446
FTUS43 KBIS 211720
TAFDIK
TAF
KDIK 211720Z 2118/2218 28028G39KT P6SM BKN025 WS020/29035KT
     FM212100 28024G37KT P6SM BKN045 WS020/30035KT
     FM220300 26010KT P6SM FEW090
     FM221500 24017G25KT P6SM BKN080 WS020/25035KT=

USA.gov is the U.S. government's official web portal to all federal, state and local government web resources and services.